sensor_id;sensor_type;location;lat;lon;timestamp;P1;durP1;ratioP1;P2;durP2;ratioP2
79533;SDS011;68982;52.160;6.736;2023-05-17T00:00:50;8.40;;;3.42;;
79533;SDS011;68982;52.160;6.736;2023-05-17T00:03:15;5.45;;;3.10;;
79533;SDS011;68982;52.160;6.736;2023-05-17T00:05:40;7.07;;;3.07;;
79533;SDS011;68982;52.160;6.736;2023-05-17T00:08:06;7.60;;;3.77;;
79533;SDS011;68982;52.160;6.736;2023-05-17T00:10:31;5.82;;;2.83;;
79533;SDS011;68982;52.160;6.736;2023-05-17T00:12:57;9.27;;;3.67;;
79533;SDS011;68982;52.160;6.736;2023-05-17T00:15:22;6.53;;;3.00;;
79533;SDS011;68982;52.160;6.736;2023-05-17T00:17:47;9.07;;;2.95;;
79533;SDS011;68982;52.160;6.736;2023-05-17T00:20:12;9.17;;;3.40;;
79533;SDS011;68982;52.160;6.736;2023-05-17T00:22:38;10.82;;;2.78;;
79533;SDS011;68982;52.160;6.736;2023-05-17T00:25:05;8.40;;;3.20;;
79533;SDS011;68982;52.160;6.736;2023-05-17T00:27:30;8.48;;;3.45;;
79533;SDS011;68982;52.160;6.736;2023-05-17T00:29:56;9.30;;;3.33;;
79533;SDS011;68982;52.160;6.736;2023-05-17T00:32:21;6.88;;;3.25;;
79533;SDS011;68982;52.160;6.736;2023-05-17T00:34:46;7.50;;;3.20;;
79533;SDS011;68982;52.160;6.736;2023-05-17T00:37:12;6.23;;;2.80;;
79533;SDS011;68982;52.160;6.736;2023-05-17T00:39:37;11.75;;;3.10;;
79533;SDS011;68982;52.160;6.736;2023-05-17T00:42:03;9.30;;;3.60;;
79533;SDS011;68982;52.160;6.736;2023-05-17T00:44:29;6.60;;;3.30;;
79533;SDS011;68982;52.160;6.736;2023-05-17T00:46:55;9.20;;;3.75;;
79533;SDS011;68982;52.160;6.736;2023-05-17T00:49:21;9.50;;;3.38;;
79533;SDS011;68982;52.160;6.736;2023-05-17T00:51:46;10.70;;;3.63;;
79533;SDS011;68982;52.160;6.736;2023-05-17T00:54:12;7.38;;;3.20;;
79533;SDS011;68982;52.160;6.736;2023-05-17T00:56:38;11.23;;;2.75;;
79533;SDS011;68982;52.160;6.736;2023-05-17T00:59:04;8.65;;;3.92;;
79533;SDS011;68982;52.160;6.736;2023-05-17T01:01:30;5.97;;;2.75;;
79533;SDS011;68982;52.160;6.736;2023-05-17T01:03:57;8.25;;;3.42;;
79533;SDS011;68982;52.160;6.736;2023-05-17T01:06:23;11.90;;;3.15;;
79533;SDS011;68982;52.160;6.736;2023-05-17T01:08:48;12.53;;;3.30;;
79533;SDS011;68982;52.160;6.736;2023-05-17T01:11:19;12.25;;;3.63;;
79533;SDS011;68982;52.160;6.736;2023-05-17T01:16:59;8.00;;;3.63;;
79533;SDS011;68982;52.160;6.736;2023-05-17T01:22:26;10.43;;;3.67;;
79533;SDS011;68982;52.160;6.736;2023-05-17T01:27:59;6.05;;;2.78;;
79533;SDS011;68982;52.160;6.736;2023-05-17T01:30:26;12.57;;;3.97;;
79533;SDS011;68982;52.160;6.736;2023-05-17T01:32:56;10.93;;;3.20;;
79533;SDS011;68982;52.160;6.736;2023-05-17T01:35:23;9.88;;;3.80;;
79533;SDS011;68982;52.160;6.736;2023-05-17T01:37:49;11.98;;;4.30;;
79533;SDS011;68982;52.160;6.736;2023-05-17T01:40:16;11.35;;;3.40;;
79533;SDS011;68982;52.160;6.736;2023-05-17T01:42:42;11.20;;;3.47;;
79533;SDS011;68982;52.160;6.736;2023-05-17T01:48:19;9.75;;;3.30;;
79533;SDS011;68982;52.160;6.736;2023-05-17T01:50:48;12.00;;;3.78;;
79533;SDS011;68982;52.160;6.736;2023-05-17T01:53:19;13.90;;;4.20;;
79533;SDS011;68982;52.160;6.736;2023-05-17T01:55:53;14.02;;;3.72;;
79533;SDS011;68982;52.160;6.736;2023-05-17T01:58:24;12.05;;;3.65;;
79533;SDS011;68982;52.160;6.736;2023-05-17T02:00:53;12.98;;;3.97;;
79533;SDS011;68982;52.160;6.736;2023-05-17T02:03:20;13.35;;;4.05;;
79533;SDS011;68982;52.160;6.736;2023-05-17T02:05:46;6.15;;;3.08;;
79533;SDS011;68982;52.160;6.736;2023-05-17T02:08:11;14.48;;;4.65;;
79533;SDS011;68982;52.160;6.736;2023-05-17T02:10:37;12.93;;;3.75;;
79533;SDS011;68982;52.160;6.736;2023-05-17T02:13:03;11.20;;;3.88;;
79533;SDS011;68982;52.160;6.736;2023-05-17T02:15:28;8.48;;;3.80;;
79533;SDS011;68982;52.160;6.736;2023-05-17T02:17:54;11.13;;;3.33;;
79533;SDS011;68982;52.160;6.736;2023-05-17T02:20:19;12.60;;;3.85;;
79533;SDS011;68982;52.160;6.736;2023-05-17T02:22:45;10.80;;;3.88;;
79533;SDS011;68982;52.160;6.736;2023-05-17T02:25:10;10.82;;;4.63;;
79533;SDS011;68982;52.160;6.736;2023-05-17T02:27:36;7.55;;;3.15;;
79533;SDS011;68982;52.160;6.736;2023-05-17T02:30:01;8.73;;;3.95;;
79533;SDS011;68982;52.160;6.736;2023-05-17T02:32:28;11.73;;;3.42;;
79533;SDS011;68982;52.160;6.736;2023-05-17T02:34:54;10.05;;;3.67;;
79533;SDS011;68982;52.160;6.736;2023-05-17T02:37:20;8.73;;;3.58;;
79533;SDS011;68982;52.160;6.736;2023-05-17T02:39:45;10.90;;;3.63;;
79533;SDS011;68982;52.160;6.736;2023-05-17T02:42:11;8.15;;;2.80;;
79533;SDS011;68982;52.160;6.736;2023-05-17T02:44:36;6.70;;;3.20;;
79533;SDS011;68982;52.160;6.736;2023-05-17T02:47:01;9.68;;;3.42;;
79533;SDS011;68982;52.160;6.736;2023-05-17T02:49:27;11.38;;;3.53;;
79533;SDS011;68982;52.160;6.736;2023-05-17T02:51:52;13.80;;;3.93;;
79533;SDS011;68982;52.160;6.736;2023-05-17T02:54:17;11.23;;;3.72;;
79533;SDS011;68982;52.160;6.736;2023-05-17T02:56:43;9.63;;;3.47;;
79533;SDS011;68982;52.160;6.736;2023-05-17T02:59:08;11.90;;;3.63;;
79533;SDS011;68982;52.160;6.736;2023-05-17T03:01:33;11.97;;;3.50;;
79533;SDS011;68982;52.160;6.736;2023-05-17T03:03:59;10.60;;;3.33;;
79533;SDS011;68982;52.160;6.736;2023-05-17T03:06:24;11.87;;;3.70;;
79533;SDS011;68982;52.160;6.736;2023-05-17T03:08:49;12.53;;;3.50;;
79533;SDS011;68982;52.160;6.736;2023-05-17T03:11:15;12.43;;;4.00;;
79533;SDS011;68982;52.160;6.736;2023-05-17T03:13:40;10.32;;;3.55;;
79533;SDS011;68982;52.160;6.736;2023-05-17T03:16:05;12.13;;;4.70;;
79533;SDS011;68982;52.160;6.736;2023-05-17T03:18:31;9.85;;;3.22;;
79533;SDS011;68982;52.160;6.736;2023-05-17T03:20:57;10.80;;;3.40;;
79533;SDS011;68982;52.160;6.736;2023-05-17T03:23:22;8.27;;;3.17;;
79533;SDS011;68982;52.160;6.736;2023-05-17T03:25:47;12.43;;;3.72;;
79533;SDS011;68982;52.160;6.736;2023-05-17T03:28:13;9.73;;;3.37;;
79533;SDS011;68982;52.160;6.736;2023-05-17T03:30:38;15.77;;;3.77;;
79533;SDS011;68982;52.160;6.736;2023-05-17T03:33:03;9.98;;;3.55;;
79533;SDS011;68982;52.160;6.736;2023-05-17T03:35:29;14.43;;;3.93;;
79533;SDS011;68982;52.160;6.736;2023-05-17T03:37:54;9.40;;;3.05;;
79533;SDS011;68982;52.160;6.736;2023-05-17T03:40:19;10.77;;;3.40;;
79533;SDS011;68982;52.160;6.736;2023-05-17T03:42:45;9.60;;;3.35;;
79533;SDS011;68982;52.160;6.736;2023-05-17T03:45:10;9.77;;;2.90;;
79533;SDS011;68982;52.160;6.736;2023-05-17T03:47:36;10.68;;;3.58;;
79533;SDS011;68982;52.160;6.736;2023-05-17T03:50:02;13.13;;;3.83;;
79533;SDS011;68982;52.160;6.736;2023-05-17T03:52:28;9.30;;;3.42;;
79533;SDS011;68982;52.160;6.736;2023-05-17T03:54:53;7.43;;;3.13;;
79533;SDS011;68982;52.160;6.736;2023-05-17T03:57:18;8.80;;;3.03;;
79533;SDS011;68982;52.160;6.736;2023-05-17T03:59:45;12.32;;;3.08;;
79533;SDS011;68982;52.160;6.736;2023-05-17T04:02:11;11.88;;;3.05;;
79533;SDS011;68982;52.160;6.736;2023-05-17T04:04:36;9.57;;;3.23;;
79533;SDS011;68982;52.160;6.736;2023-05-17T04:07:01;9.97;;;3.00;;
79533;SDS011;68982;52.160;6.736;2023-05-17T04:09:27;10.25;;;3.47;;
79533;SDS011;68982;52.160;6.736;2023-05-17T04:11:52;8.77;;;2.88;;
79533;SDS011;68982;52.160;6.736;2023-05-17T04:14:17;11.02;;;2.95;;
79533;SDS011;68982;52.160;6.736;2023-05-17T04:16:43;9.85;;;3.33;;
79533;SDS011;68982;52.160;6.736;2023-05-17T04:19:09;7.53;;;3.05;;
79533;SDS011;68982;52.160;6.736;2023-05-17T04:21:34;8.45;;;2.75;;
79533;SDS011;68982;52.160;6.736;2023-05-17T04:23:59;9.95;;;3.33;;
79533;SDS011;68982;52.160;6.736;2023-05-17T04:26:25;8.35;;;2.95;;
79533;SDS011;68982;52.160;6.736;2023-05-17T04:28:51;11.82;;;3.60;;
79533;SDS011;68982;52.160;6.736;2023-05-17T04:31:16;17.35;;;3.97;;
79533;SDS011;68982;52.160;6.736;2023-05-17T04:33:42;13.13;;;4.13;;
79533;SDS011;68982;52.160;6.736;2023-05-17T04:36:07;12.98;;;3.70;;
79533;SDS011;68982;52.160;6.736;2023-05-17T04:38:32;11.45;;;3.50;;
79533;SDS011;68982;52.160;6.736;2023-05-17T04:41:04;10.70;;;3.53;;
79533;SDS011;68982;52.160;6.736;2023-05-17T04:43:30;8.70;;;3.40;;
79533;SDS011;68982;52.160;6.736;2023-05-17T04:45:57;14.10;;;3.90;;
79533;SDS011;68982;52.160;6.736;2023-05-17T04:48:23;11.50;;;3.53;;
79533;SDS011;68982;52.160;6.736;2023-05-17T04:50:50;7.32;;;3.22;;
79533;SDS011;68982;52.160;6.736;2023-05-17T04:53:15;9.75;;;3.17;;
79533;SDS011;68982;52.160;6.736;2023-05-17T04:55:41;10.77;;;3.38;;
79533;SDS011;68982;52.160;6.736;2023-05-17T04:58:06;16.63;;;3.33;;
79533;SDS011;68982;52.160;6.736;2023-05-17T05:00:33;14.07;;;3.13;;
79533;SDS011;68982;52.160;6.736;2023-05-17T05:02:58;16.10;;;3.42;;
79533;SDS011;68982;52.160;6.736;2023-05-17T05:05:24;9.73;;;2.80;;
79533;SDS011;68982;52.160;6.736;2023-05-17T05:07:49;8.60;;;2.70;;
79533;SDS011;68982;52.160;6.736;2023-05-17T05:10:15;17.90;;;3.45;;
79533;SDS011;68982;52.160;6.736;2023-05-17T05:12:41;10.15;;;2.67;;
79533;SDS011;68982;52.160;6.736;2023-05-17T05:15:06;12.52;;;2.65;;
79533;SDS011;68982;52.160;6.736;2023-05-17T05:17:32;11.13;;;2.65;;
79533;SDS011;68982;52.160;6.736;2023-05-17T05:19:58;11.27;;;2.88;;
79533;SDS011;68982;52.160;6.736;2023-05-17T05:22:23;11.23;;;2.17;;
79533;SDS011;68982;52.160;6.736;2023-05-17T05:24:49;12.75;;;3.00;;
79533;SDS011;68982;52.160;6.736;2023-05-17T05:27:14;8.07;;;2.78;;
79533;SDS011;68982;52.160;6.736;2023-05-17T05:29:39;12.60;;;2.50;;
79533;SDS011;68982;52.160;6.736;2023-05-17T05:32:06;10.00;;;3.50;;
79533;SDS011;68982;52.160;6.736;2023-05-17T05:34:32;10.23;;;3.08;;
79533;SDS011;68982;52.160;6.736;2023-05-17T05:36:58;7.43;;;2.35;;
79533;SDS011;68982;52.160;6.736;2023-05-17T05:39:23;9.85;;;2.42;;
79533;SDS011;68982;52.160;6.736;2023-05-17T05:41:48;10.68;;;2.40;;
79533;SDS011;68982;52.160;6.736;2023-05-17T05:44:15;9.82;;;2.15;;
79533;SDS011;68982;52.160;6.736;2023-05-17T05:46:41;10.20;;;2.35;;
79533;SDS011;68982;52.160;6.736;2023-05-17T05:49:06;7.78;;;2.60;;
79533;SDS011;68982;52.160;6.736;2023-05-17T05:51:32;12.30;;;2.20;;
79533;SDS011;68982;52.160;6.736;2023-05-17T05:53:57;9.18;;;2.50;;
79533;SDS011;68982;52.160;6.736;2023-05-17T05:56:23;10.88;;;2.05;;
79533;SDS011;68982;52.160;6.736;2023-05-17T05:58:51;7.45;;;2.15;;
79533;SDS011;68982;52.160;6.736;2023-05-17T06:01:16;7.63;;;2.70;;
79533;SDS011;68982;52.160;6.736;2023-05-17T06:03:41;8.77;;;2.65;;
79533;SDS011;68982;52.160;6.736;2023-05-17T06:06:07;8.57;;;2.10;;
79533;SDS011;68982;52.160;6.736;2023-05-17T06:08:32;9.98;;;2.15;;
79533;SDS011;68982;52.160;6.736;2023-05-17T06:10:58;9.17;;;2.10;;
79533;SDS011;68982;52.160;6.736;2023-05-17T06:13:23;7.97;;;2.00;;
79533;SDS011;68982;52.160;6.736;2023-05-17T06:15:48;13.23;;;2.15;;
79533;SDS011;68982;52.160;6.736;2023-05-17T06:18:14;11.90;;;2.25;;
79533;SDS011;68982;52.160;6.736;2023-05-17T06:20:39;5.05;;;1.63;;
79533;SDS011;68982;52.160;6.736;2023-05-17T06:23:05;5.93;;;1.80;;
79533;SDS011;68982;52.160;6.736;2023-05-17T06:25:30;7.70;;;2.08;;
79533;SDS011;68982;52.160;6.736;2023-05-17T06:27:56;5.13;;;1.48;;
79533;SDS011;68982;52.160;6.736;2023-05-17T06:30:21;10.13;;;1.90;;
79533;SDS011;68982;52.160;6.736;2023-05-17T06:32:47;9.98;;;2.40;;
79533;SDS011;68982;52.160;6.736;2023-05-17T06:35:12;5.93;;;1.85;;
79533;SDS011;68982;52.160;6.736;2023-05-17T06:37:37;6.03;;;2.53;;
79533;SDS011;68982;52.160;6.736;2023-05-17T06:40:03;7.22;;;1.80;;
79533;SDS011;68982;52.160;6.736;2023-05-17T06:42:30;7.13;;;1.75;;
79533;SDS011;68982;52.160;6.736;2023-05-17T06:44:56;7.55;;;1.83;;
79533;SDS011;68982;52.160;6.736;2023-05-17T06:47:22;8.10;;;2.00;;
79533;SDS011;68982;52.160;6.736;2023-05-17T06:49:47;6.53;;;2.13;;
79533;SDS011;68982;52.160;6.736;2023-05-17T06:52:12;7.50;;;1.73;;
79533;SDS011;68982;52.160;6.736;2023-05-17T06:54:37;6.57;;;1.60;;
79533;SDS011;68982;52.160;6.736;2023-05-17T06:57:03;6.83;;;1.77;;
79533;SDS011;68982;52.160;6.736;2023-05-17T06:59:29;8.65;;;1.58;;
79533;SDS011;68982;52.160;6.736;2023-05-17T07:01:54;8.98;;;2.00;;
79533;SDS011;68982;52.160;6.736;2023-05-17T07:04:20;8.38;;;2.15;;
79533;SDS011;68982;52.160;6.736;2023-05-17T07:06:46;6.38;;;1.85;;
79533;SDS011;68982;52.160;6.736;2023-05-17T07:09:11;7.82;;;1.67;;
79533;SDS011;68982;52.160;6.736;2023-05-17T07:11:37;8.35;;;1.77;;
79533;SDS011;68982;52.160;6.736;2023-05-17T07:14:02;7.53;;;1.67;;
79533;SDS011;68982;52.160;6.736;2023-05-17T07:16:28;4.55;;;1.83;;
79533;SDS011;68982;52.160;6.736;2023-05-17T07:18:53;6.22;;;1.40;;
79533;SDS011;68982;52.160;6.736;2023-05-17T07:21:19;5.72;;;1.33;;
79533;SDS011;68982;52.160;6.736;2023-05-17T07:23:44;6.00;;;1.53;;
79533;SDS011;68982;52.160;6.736;2023-05-17T07:26:09;3.90;;;1.73;;
79533;SDS011;68982;52.160;6.736;2023-05-17T07:28:35;7.30;;;2.05;;
79533;SDS011;68982;52.160;6.736;2023-05-17T07:31:00;6.60;;;2.92;;
79533;SDS011;68982;52.160;6.736;2023-05-17T07:33:26;6.85;;;1.92;;
79533;SDS011;68982;52.160;6.736;2023-05-17T07:35:51;9.18;;;1.85;;
79533;SDS011;68982;52.160;6.736;2023-05-17T07:38:17;8.13;;;2.23;;
79533;SDS011;68982;52.160;6.736;2023-05-17T07:40:42;8.95;;;2.22;;
79533;SDS011;68982;52.160;6.736;2023-05-17T07:43:07;6.28;;;1.63;;
79533;SDS011;68982;52.160;6.736;2023-05-17T07:45:33;7.20;;;1.88;;
79533;SDS011;68982;52.160;6.736;2023-05-17T07:47:58;5.57;;;1.73;;
79533;SDS011;68982;52.160;6.736;2023-05-17T07:50:23;8.20;;;1.60;;
79533;SDS011;68982;52.160;6.736;2023-05-17T07:52:49;3.95;;;1.40;;
79533;SDS011;68982;52.160;6.736;2023-05-17T07:55:15;7.07;;;1.58;;
79533;SDS011;68982;52.160;6.736;2023-05-17T07:57:41;8.25;;;1.60;;
79533;SDS011;68982;52.160;6.736;2023-05-17T08:00:06;4.68;;;1.40;;
79533;SDS011;68982;52.160;6.736;2023-05-17T08:02:32;7.70;;;1.80;;
79533;SDS011;68982;52.160;6.736;2023-05-17T08:04:58;4.57;;;1.90;;
79533;SDS011;68982;52.160;6.736;2023-05-17T08:07:23;5.68;;;1.73;;
79533;SDS011;68982;52.160;6.736;2023-05-17T08:09:49;4.20;;;1.33;;
79533;SDS011;68982;52.160;6.736;2023-05-17T08:12:15;7.43;;;2.15;;
79533;SDS011;68982;52.160;6.736;2023-05-17T08:14:40;3.58;;;1.40;;
79533;SDS011;68982;52.160;6.736;2023-05-17T08:17:05;7.37;;;1.60;;
79533;SDS011;68982;52.160;6.736;2023-05-17T08:19:31;10.75;;;2.20;;
79533;SDS011;68982;52.160;6.736;2023-05-17T08:21:56;8.80;;;1.70;;
79533;SDS011;68982;52.160;6.736;2023-05-17T08:24:22;8.68;;;1.50;;
79533;SDS011;68982;52.160;6.736;2023-05-17T08:26:48;3.27;;;1.43;;
79533;SDS011;68982;52.160;6.736;2023-05-17T08:29:13;5.57;;;1.80;;
79533;SDS011;68982;52.160;6.736;2023-05-17T08:31:38;4.57;;;1.40;;
79533;SDS011;68982;52.160;6.736;2023-05-17T08:34:03;8.13;;;1.80;;
79533;SDS011;68982;52.160;6.736;2023-05-17T08:36:29;8.70;;;1.80;;
79533;SDS011;68982;52.160;6.736;2023-05-17T08:38:54;6.55;;;1.42;;
79533;SDS011;68982;52.160;6.736;2023-05-17T08:41:20;7.35;;;1.70;;
79533;SDS011;68982;52.160;6.736;2023-05-17T08:43:46;5.05;;;1.98;;
79533;SDS011;68982;52.160;6.736;2023-05-17T08:46:13;7.25;;;1.73;;
79533;SDS011;68982;52.160;6.736;2023-05-17T08:48:39;3.45;;;1.30;;
79533;SDS011;68982;52.160;6.736;2023-05-17T08:51:07;6.45;;;1.35;;
79533;SDS011;68982;52.160;6.736;2023-05-17T08:53:36;5.10;;;1.60;;
79533;SDS011;68982;52.160;6.736;2023-05-17T08:56:02;7.90;;;1.65;;
79533;SDS011;68982;52.160;6.736;2023-05-17T08:58:33;6.20;;;2.03;;
79533;SDS011;68982;52.160;6.736;2023-05-17T09:01:01;6.78;;;1.80;;
79533;SDS011;68982;52.160;6.736;2023-05-17T09:03:27;6.40;;;1.73;;
79533;SDS011;68982;52.160;6.736;2023-05-17T09:05:54;4.57;;;1.70;;
79533;SDS011;68982;52.160;6.736;2023-05-17T09:08:20;4.03;;;1.52;;
79533;SDS011;68982;52.160;6.736;2023-05-17T09:10:46;5.28;;;1.33;;
79533;SDS011;68982;52.160;6.736;2023-05-17T09:13:12;8.00;;;2.92;;
79533;SDS011;68982;52.160;6.736;2023-05-17T09:15:37;6.53;;;1.92;;
79533;SDS011;68982;52.160;6.736;2023-05-17T09:18:07;9.30;;;1.80;;
79533;SDS011;68982;52.160;6.736;2023-05-17T09:20:36;6.82;;;1.50;;
79533;SDS011;68982;52.160;6.736;2023-05-17T09:23:03;5.13;;;1.67;;
79533;SDS011;68982;52.160;6.736;2023-05-17T09:25:30;6.85;;;1.92;;
79533;SDS011;68982;52.160;6.736;2023-05-17T09:28:00;5.07;;;1.23;;
79533;SDS011;68982;52.160;6.736;2023-05-17T09:30:32;2.50;;;1.42;;
79533;SDS011;68982;52.160;6.736;2023-05-17T09:33:08;6.28;;;1.60;;
79533;SDS011;68982;52.160;6.736;2023-05-17T09:35:35;6.25;;;1.63;;
79533;SDS011;68982;52.160;6.736;2023-05-17T09:38:08;4.63;;;2.00;;
79533;SDS011;68982;52.160;6.736;2023-05-17T09:40:39;5.97;;;1.88;;
79533;SDS011;68982;52.160;6.736;2023-05-17T09:43:05;4.47;;;1.60;;
79533;SDS011;68982;52.160;6.736;2023-05-17T09:45:31;5.57;;;1.38;;
79533;SDS011;68982;52.160;6.736;2023-05-17T09:47:57;4.90;;;1.50;;
79533;SDS011;68982;52.160;6.736;2023-05-17T09:50:35;4.43;;;1.33;;
79533;SDS011;68982;52.160;6.736;2023-05-17T09:53:00;6.28;;;1.63;;
79533;SDS011;68982;52.160;6.736;2023-05-17T09:55:26;6.25;;;1.60;;
79533;SDS011;68982;52.160;6.736;2023-05-17T09:57:52;6.13;;;1.63;;
79533;SDS011;68982;52.160;6.736;2023-05-17T10:00:17;6.18;;;1.55;;
79533;SDS011;68982;52.160;6.736;2023-05-17T10:02:46;6.88;;;1.60;;
79533;SDS011;68982;52.160;6.736;2023-05-17T10:05:13;5.35;;;1.45;;
79533;SDS011;68982;52.160;6.736;2023-05-17T10:07:41;5.57;;;1.33;;
79533;SDS011;68982;52.160;6.736;2023-05-17T10:10:08;9.07;;;2.00;;
79533;SDS011;68982;52.160;6.736;2023-05-17T10:12:34;5.50;;;1.70;;
79533;SDS011;68982;52.160;6.736;2023-05-17T10:15:03;8.70;;;1.73;;
79533;SDS011;68982;52.160;6.736;2023-05-17T10:17:29;3.55;;;1.40;;
79533;SDS011;68982;52.160;6.736;2023-05-17T10:19:56;4.30;;;1.35;;
79533;SDS011;68982;52.160;6.736;2023-05-17T10:22:21;9.20;;;1.80;;
79533;SDS011;68982;52.160;6.736;2023-05-17T10:24:48;4.55;;;1.42;;
79533;SDS011;68982;52.160;6.736;2023-05-17T10:27:15;6.10;;;1.77;;
79533;SDS011;68982;52.160;6.736;2023-05-17T10:29:41;9.52;;;1.80;;
79533;SDS011;68982;52.160;6.736;2023-05-17T10:32:08;5.10;;;1.65;;
79533;SDS011;68982;52.160;6.736;2023-05-17T10:34:35;7.38;;;1.63;;
79533;SDS011;68982;52.160;6.736;2023-05-17T10:37:03;3.47;;;1.42;;
79533;SDS011;68982;52.160;6.736;2023-05-17T10:39:29;9.40;;;1.67;;
79533;SDS011;68982;52.160;6.736;2023-05-17T10:41:58;7.82;;;1.65;;
79533;SDS011;68982;52.160;6.736;2023-05-17T10:46:55;6.45;;;1.40;;
79533;SDS011;68982;52.160;6.736;2023-05-17T10:49:28;4.22;;;1.35;;
79533;SDS011;68982;52.160;6.736;2023-05-17T10:51:56;6.63;;;1.98;;
79533;SDS011;68982;52.160;6.736;2023-05-17T10:54:35;7.68;;;1.80;;
79533;SDS011;68982;52.160;6.736;2023-05-17T10:57:05;3.75;;;1.38;;
79533;SDS011;68982;52.160;6.736;2023-05-17T10:59:31;5.93;;;2.03;;
79533;SDS011;68982;52.160;6.736;2023-05-17T11:14:56;8.13;;;1.85;;
79533;SDS011;68982;52.160;6.736;2023-05-17T11:17:23;7.78;;;2.33;;
79533;SDS011;68982;52.160;6.736;2023-05-17T11:22:22;3.92;;;1.65;;
79533;SDS011;68982;52.160;6.736;2023-05-17T11:24:50;10.18;;;2.25;;
79533;SDS011;68982;52.160;6.736;2023-05-17T11:27:17;6.20;;;1.52;;
79533;SDS011;68982;52.160;6.736;2023-05-17T11:29:46;4.05;;;1.73;;
79533;SDS011;68982;52.160;6.736;2023-05-17T11:32:12;5.30;;;1.90;;
79533;SDS011;68982;52.160;6.736;2023-05-17T11:34:37;8.48;;;2.20;;
79533;SDS011;68982;52.160;6.736;2023-05-17T11:37:03;10.23;;;2.45;;
79533;SDS011;68982;52.160;6.736;2023-05-17T11:39:30;8.35;;;2.30;;
79533;SDS011;68982;52.160;6.736;2023-05-17T11:41:56;5.45;;;1.77;;
79533;SDS011;68982;52.160;6.736;2023-05-17T11:44:28;9.13;;;1.85;;
79533;SDS011;68982;52.160;6.736;2023-05-17T11:47:05;5.65;;;1.55;;
79533;SDS011;68982;52.160;6.736;2023-05-17T11:49:35;5.07;;;1.83;;
79533;SDS011;68982;52.160;6.736;2023-05-17T11:52:01;8.27;;;2.10;;
79533;SDS011;68982;52.160;6.736;2023-05-17T11:54:27;6.88;;;1.73;;
79533;SDS011;68982;52.160;6.736;2023-05-17T11:59:20;9.40;;;2.35;;
79533;SDS011;68982;52.160;6.736;2023-05-17T12:01:47;6.57;;;1.75;;
79533;SDS011;68982;52.160;6.736;2023-05-17T12:04:25;6.03;;;2.17;;
79533;SDS011;68982;52.160;6.736;2023-05-17T12:06:52;7.53;;;1.73;;
79533;SDS011;68982;52.160;6.736;2023-05-17T12:09:18;7.88;;;2.00;;
79533;SDS011;68982;52.160;6.736;2023-05-17T12:11:45;7.28;;;2.67;;
79533;SDS011;68982;52.160;6.736;2023-05-17T12:14:15;9.40;;;2.05;;
79533;SDS011;68982;52.160;6.736;2023-05-17T12:16:41;7.35;;;2.05;;
79533;SDS011;68982;52.160;6.736;2023-05-17T12:19:21;8.32;;;1.85;;
79533;SDS011;68982;52.160;6.736;2023-05-17T12:21:48;7.53;;;2.20;;
79533;SDS011;68982;52.160;6.736;2023-05-17T12:24:15;7.32;;;1.90;;
79533;SDS011;68982;52.160;6.736;2023-05-17T12:26:43;4.50;;;1.85;;
79533;SDS011;68982;52.160;6.736;2023-05-17T12:29:10;5.20;;;1.50;;
79533;SDS011;68982;52.160;6.736;2023-05-17T12:34:12;8.68;;;1.95;;
79533;SDS011;68982;52.160;6.736;2023-05-17T12:36:38;7.15;;;1.65;;
79533;SDS011;68982;52.160;6.736;2023-05-17T12:39:04;5.85;;;1.98;;
79533;SDS011;68982;52.160;6.736;2023-05-17T12:41:33;8.45;;;1.70;;
79533;SDS011;68982;52.160;6.736;2023-05-17T12:44:00;7.00;;;2.13;;
79533;SDS011;68982;52.160;6.736;2023-05-17T12:46:25;9.02;;;2.10;;
79533;SDS011;68982;52.160;6.736;2023-05-17T12:48:52;4.35;;;2.28;;
79533;SDS011;68982;52.160;6.736;2023-05-17T12:51:18;9.65;;;2.22;;
79533;SDS011;68982;52.160;6.736;2023-05-17T12:53:49;6.95;;;1.95;;
79533;SDS011;68982;52.160;6.736;2023-05-17T12:56:26;8.38;;;2.35;;
79533;SDS011;68982;52.160;6.736;2023-05-17T12:59:11;6.60;;;1.92;;
79533;SDS011;68982;52.160;6.736;2023-05-17T13:04:06;9.60;;;2.15;;
79533;SDS011;68982;52.160;6.736;2023-05-17T13:09:12;7.60;;;1.92;;
79533;SDS011;68982;52.160;6.736;2023-05-17T13:11:39;9.07;;;2.17;;
79533;SDS011;68982;52.160;6.736;2023-05-17T13:16:31;5.72;;;1.58;;
79533;SDS011;68982;52.160;6.736;2023-05-17T13:18:58;8.52;;;1.88;;
79533;SDS011;68982;52.160;6.736;2023-05-17T13:21:23;10.90;;;2.22;;
79533;SDS011;68982;52.160;6.736;2023-05-17T13:23:49;6.45;;;2.05;;
79533;SDS011;68982;52.160;6.736;2023-05-17T13:26:15;6.18;;;1.88;;
79533;SDS011;68982;52.160;6.736;2023-05-17T13:28:42;5.88;;;1.98;;
79533;SDS011;68982;52.160;6.736;2023-05-17T13:31:07;7.13;;;1.95;;
79533;SDS011;68982;52.160;6.736;2023-05-17T13:33:33;6.20;;;1.70;;
79533;SDS011;68982;52.160;6.736;2023-05-17T13:35:58;7.45;;;2.13;;
79533;SDS011;68982;52.160;6.736;2023-05-17T13:38:24;6.35;;;2.03;;
79533;SDS011;68982;52.160;6.736;2023-05-17T13:40:49;5.38;;;1.65;;
79533;SDS011;68982;52.160;6.736;2023-05-17T13:43:15;11.90;;;2.45;;
79533;SDS011;68982;52.160;6.736;2023-05-17T13:45:40;8.80;;;1.85;;
79533;SDS011;68982;52.160;6.736;2023-05-17T13:48:06;7.90;;;1.97;;
79533;SDS011;68982;52.160;6.736;2023-05-17T13:50:31;7.03;;;2.50;;
79533;SDS011;68982;52.160;6.736;2023-05-17T13:52:57;12.35;;;2.60;;
79533;SDS011;68982;52.160;6.736;2023-05-17T13:55:23;7.35;;;2.28;;
79533;SDS011;68982;52.160;6.736;2023-05-17T13:57:48;6.22;;;1.92;;
79533;SDS011;68982;52.160;6.736;2023-05-17T14:00:14;5.97;;;1.98;;
79533;SDS011;68982;52.160;6.736;2023-05-17T14:02:40;7.05;;;2.13;;
79533;SDS011;68982;52.160;6.736;2023-05-17T14:05:05;5.28;;;1.83;;
79533;SDS011;68982;52.160;6.736;2023-05-17T14:07:33;8.38;;;1.83;;
79533;SDS011;68982;52.160;6.736;2023-05-17T14:09:58;7.43;;;2.83;;
79533;SDS011;68982;52.160;6.736;2023-05-17T14:12:24;9.13;;;1.88;;
79533;SDS011;68982;52.160;6.736;2023-05-17T14:14:50;6.68;;;2.03;;
79533;SDS011;68982;52.160;6.736;2023-05-17T14:17:15;7.72;;;1.70;;
79533;SDS011;68982;52.160;6.736;2023-05-17T14:19:40;9.13;;;2.30;;
79533;SDS011;68982;52.160;6.736;2023-05-17T14:22:06;6.00;;;1.87;;
79533;SDS011;68982;52.160;6.736;2023-05-17T14:24:32;9.30;;;2.30;;
79533;SDS011;68982;52.160;6.736;2023-05-17T14:26:58;9.23;;;2.40;;
79533;SDS011;68982;52.160;6.736;2023-05-17T14:29:23;8.50;;;1.73;;
79533;SDS011;68982;52.160;6.736;2023-05-17T14:31:48;8.63;;;2.17;;
79533;SDS011;68982;52.160;6.736;2023-05-17T14:34:14;8.82;;;1.98;;
79533;SDS011;68982;52.160;6.736;2023-05-17T14:36:39;6.75;;;1.92;;
79533;SDS011;68982;52.160;6.736;2023-05-17T14:39:05;6.63;;;1.95;;
79533;SDS011;68982;52.160;6.736;2023-05-17T14:41:30;7.65;;;1.83;;
79533;SDS011;68982;52.160;6.736;2023-05-17T14:43:55;7.93;;;1.90;;
79533;SDS011;68982;52.160;6.736;2023-05-17T14:46:21;7.35;;;2.03;;
79533;SDS011;68982;52.160;6.736;2023-05-17T14:48:47;9.35;;;2.22;;
79533;SDS011;68982;52.160;6.736;2023-05-17T14:51:13;6.68;;;1.75;;
79533;SDS011;68982;52.160;6.736;2023-05-17T14:53:38;9.13;;;2.10;;
79533;SDS011;68982;52.160;6.736;2023-05-17T14:56:04;9.60;;;1.75;;
79533;SDS011;68982;52.160;6.736;2023-05-17T14:58:29;7.82;;;1.90;;
79533;SDS011;68982;52.160;6.736;2023-05-17T15:00:55;6.57;;;1.77;;
79533;SDS011;68982;52.160;6.736;2023-05-17T15:03:23;7.85;;;1.95;;
79533;SDS011;68982;52.160;6.736;2023-05-17T15:05:53;7.32;;;2.03;;
79533;SDS011;68982;52.160;6.736;2023-05-17T15:08:19;5.28;;;1.65;;
79533;SDS011;68982;52.160;6.736;2023-05-17T15:10:45;4.15;;;1.58;;
79533;SDS011;68982;52.160;6.736;2023-05-17T15:13:11;6.40;;;1.83;;
79533;SDS011;68982;52.160;6.736;2023-05-17T15:15:36;8.00;;;2.28;;
79533;SDS011;68982;52.160;6.736;2023-05-17T15:18:02;5.75;;;1.83;;
79533;SDS011;68982;52.160;6.736;2023-05-17T15:20:27;3.90;;;1.58;;
79533;SDS011;68982;52.160;6.736;2023-05-17T15:22:53;7.75;;;1.73;;